sensor_id;sensor_type;location;lat;lon;timestamp;temperature;humidity
1468;DHT22;727;48.892;9.544;2022-09-20T00:00:25;9.90;99.90
1468;DHT22;727;48.892;9.544;2022-09-20T00:02:52;9.90;99.90
1468;DHT22;727;48.892;9.544;2022-09-20T00:05:18;9.90;99.90
1468;DHT22;727;48.892;9.544;2022-09-20T00:07:45;9.90;99.90
1468;DHT22;727;48.892;9.544;2022-09-20T00:10:12;9.90;99.90
1468;DHT22;727;48.892;9.544;2022-09-20T00:12:40;9.90;99.90
1468;DHT22;727;48.892;9.544;2022-09-20T00:15:07;9.90;99.90
1468;DHT22;727;48.892;9.544;2022-09-20T00:17:34;9.80;99.90
1468;DHT22;727;48.892;9.544;2022-09-20T00:20:01;9.80;99.90
1468;DHT22;727;48.892;9.544;2022-09-20T00:22:28;9.80;99.90
1468;DHT22;727;48.892;9.544;2022-09-20T00:24:54;9.70;99.90
1468;DHT22;727;48.892;9.544;2022-09-20T00:27:21;9.70;99.90
1468;DHT22;727;48.892;9.544;2022-09-20T00:29:49;9.70;99.90
1468;DHT22;727;48.892;9.544;2022-09-20T00:32:17;9.70;99.90
1468;DHT22;727;48.892;9.544;2022-09-20T00:34:44;9.70;99.90
1468;DHT22;727;48.892;9.544;2022-09-20T00:37:28;9.70;99.90
1468;DHT22;727;48.892;9.544;2022-09-20T00:39:55;9.70;99.90
1468;DHT22;727;48.892;9.544;2022-09-20T00:42:26;9.70;99.90
1468;DHT22;727;48.892;9.544;2022-09-20T00:44:56;9.70;99.90
1468;DHT22;727;48.892;9.544;2022-09-20T00:47:29;9.70;99.90
1468;DHT22;727;48.892;9.544;2022-09-20T00:50:05;9.70;99.90
1468;DHT22;727;48.892;9.544;2022-09-20T00:52:34;9.80;99.90
1468;DHT22;727;48.892;9.544;2022-09-20T00:55:03;9.80;99.90
1468;DHT22;727;48.892;9.544;2022-09-20T00:57:33;9.80;99.90
1468;DHT22;727;48.892;9.544;2022-09-20T01:00:03;9.80;99.90
1468;DHT22;727;48.892;9.544;2022-09-20T01:02:33;9.70;99.90
1468;DHT22;727;48.892;9.544;2022-09-20T01:05:02;9.70;99.90
1468;DHT22;727;48.892;9.544;2022-09-20T01:07:29;9.70;99.90
1468;DHT22;727;48.892;9.544;2022-09-20T01:09:56;9.70;99.90
1468;DHT22;727;48.892;9.544;2022-09-20T01:12:26;9.60;99.90
1468;DHT22;727;48.892;9.544;2022-09-20T01:14:55;9.60;99.90
1468;DHT22;727;48.892;9.544;2022-09-20T01:17:26;9.60;99.90
1468;DHT22;727;48.892;9.544;2022-09-20T01:20:05;9.70;99.90
1468;DHT22;727;48.892;9.544;2022-09-20T01:22:40;9.70;99.90
1468;DHT22;727;48.892;9.544;2022-09-20T01:25:12;9.70;99.90
1468;DHT22;727;48.892;9.544;2022-09-20T01:27:43;9.70;99.90
1468;DHT22;727;48.892;9.544;2022-09-20T01:30:13;9.80;99.90
1468;DHT22;727;48.892;9.544;2022-09-20T01:32:49;9.80;99.90
1468;DHT22;727;48.892;9.544;2022-09-20T01:35:18;9.80;99.90
1468;DHT22;727;48.892;9.544;2022-09-20T01:37:55;9.80;99.90
1468;DHT22;727;48.892;9.544;2022-09-20T01:40:29;9.70;99.90
1468;DHT22;727;48.892;9.544;2022-09-20T01:43:07;9.70;99.90
1468;DHT22;727;48.892;9.544;2022-09-20T01:45:43;9.70;99.90
1468;DHT22;727;48.892;9.544;2022-09-20T01:48:14;9.70;99.90
1468;DHT22;727;48.892;9.544;2022-09-20T01:50:59;9.70;99.90
1468;DHT22;727;48.892;9.544;2022-09-20T01:54:08;9.70;99.90
1468;DHT22;727;48.892;9.544;2022-09-20T01:57:06;9.70;99.90
1468;DHT22;727;48.892;9.544;2022-09-20T02:00:06;9.70;99.90
1468;DHT22;727;48.892;9.544;2022-09-20T02:09:20;9.70;99.90
1468;DHT22;727;48.892;9.544;2022-09-20T02:12:06;9.70;99.90
1468;DHT22;727;48.892;9.544;2022-09-20T02:14:46;9.60;99.90
1468;DHT22;727;48.892;9.544;2022-09-20T02:17:25;9.60;99.90
1468;DHT22;727;48.892;9.544;2022-09-20T02:20:17;9.60;99.90
1468;DHT22;727;48.892;9.544;2022-09-20T02:23:02;9.60;99.90
1468;DHT22;727;48.892;9.544;2022-09-20T02:28:41;9.60;99.90
1468;DHT22;727;48.892;9.544;2022-09-20T02:31:16;9.60;99.90
1468;DHT22;727;48.892;9.544;2022-09-20T02:34:08;9.60;99.90
1468;DHT22;727;48.892;9.544;2022-09-20T02:36:46;9.60;99.90
1468;DHT22;727;48.892;9.544;2022-09-20T02:39:20;9.60;99.90
1468;DHT22;727;48.892;9.544;2022-09-20T02:42:03;9.60;99.90
1468;DHT22;727;48.892;9.544;2022-09-20T02:44:46;9.60;99.90
1468;DHT22;727;48.892;9.544;2022-09-20T02:47:21;9.60;99.90
1468;DHT22;727;48.892;9.544;2022-09-20T02:50:10;9.60;99.90
1468;DHT22;727;48.892;9.544;2022-09-20T02:52:47;9.60;99.90
1468;DHT22;727;48.892;9.544;2022-09-20T02:55:17;9.60;99.90
1468;DHT22;727;48.892;9.544;2022-09-20T02:57:49;9.60;99.90
1468;DHT22;727;48.892;9.544;2022-09-20T03:00:21;9.60;99.90
1468;DHT22;727;48.892;9.544;2022-09-20T03:03:04;9.60;99.90
1468;DHT22;727;48.892;9.544;2022-09-20T03:05:41;9.70;99.90
1468;DHT22;727;48.892;9.544;2022-09-20T03:08:25;9.60;99.90
1468;DHT22;727;48.892;9.544;2022-09-20T03:11:02;9.60;99.90
1468;DHT22;727;48.892;9.544;2022-09-20T03:13:45;9.50;99.90
1468;DHT22;727;48.892;9.544;2022-09-20T03:16:20;9.50;99.90
1468;DHT22;727;48.892;9.544;2022-09-20T03:18:56;9.50;99.90
1468;DHT22;727;48.892;9.544;2022-09-20T03:21:36;9.50;99.90
1468;DHT22;727;48.892;9.544;2022-09-20T03:24:12;9.50;99.90
1468;DHT22;727;48.892;9.544;2022-09-20T03:26:49;9.50;99.90
1468;DHT22;727;48.892;9.544;2022-09-20T03:29:30;9.50;99.90
1468;DHT22;727;48.892;9.544;2022-09-20T03:32:12;9.50;99.90
1468;DHT22;727;48.892;9.544;2022-09-20T03:34:49;9.50;99.90
1468;DHT22;727;48.892;9.544;2022-09-20T03:37:33;9.50;99.90
1468;DHT22;727;48.892;9.544;2022-09-20T03:40:28;9.50;99.90
1468;DHT22;727;48.892;9.544;2022-09-20T03:43:04;9.50;99.90
1468;DHT22;727;48.892;9.544;2022-09-20T03:45:45;9.50;99.90
1468;DHT22;727;48.892;9.544;2022-09-20T03:48:29;9.50;99.90
1468;DHT22;727;48.892;9.544;2022-09-20T03:51:12;9.50;99.90
1468;DHT22;727;48.892;9.544;2022-09-20T03:54:03;9.50;99.90
1468;DHT22;727;48.892;9.544;2022-09-20T04:00:05;9.60;99.90
1468;DHT22;727;48.892;9.544;2022-09-20T04:05:32;9.60;99.90
1468;DHT22;727;48.892;9.544;2022-09-20T04:08:11;9.60;99.90
1468;DHT22;727;48.892;9.544;2022-09-20T04:10:48;9.60;99.90
1468;DHT22;727;48.892;9.544;2022-09-20T04:13:28;9.60;99.90
1468;DHT22;727;48.892;9.544;2022-09-20T04:16:06;9.70;99.90
1468;DHT22;727;48.892;9.544;2022-09-20T04:18:39;9.70;99.90
1468;DHT22;727;48.892;9.544;2022-09-20T04:21:13;9.70;99.90
1468;DHT22;727;48.892;9.544;2022-09-20T04:23:49;9.70;99.90
1468;DHT22;727;48.892;9.544;2022-09-20T04:26:24;9.60;99.90
1468;DHT22;727;48.892;9.544;2022-09-20T04:28:54;9.60;99.90
1468;DHT22;727;48.892;9.544;2022-09-20T04:31:32;9.60;99.90
1468;DHT22;727;48.892;9.544;2022-09-20T04:34:03;9.60;99.90
1468;DHT22;727;48.892;9.544;2022-09-20T04:36:37;9.50;99.90
1468;DHT22;727;48.892;9.544;2022-09-20T04:39:26;9.50;99.90
1468;DHT22;727;48.892;9.544;2022-09-20T04:48:41;9.40;99.90
1468;DHT22;727;48.892;9.544;2022-09-20T04:51:39;9.40;99.90
1468;DHT22;727;48.892;9.544;2022-09-20T04:54:42;9.40;99.90
1468;DHT22;727;48.892;9.544;2022-09-20T04:57:37;9.30;99.90
1468;DHT22;727;48.892;9.544;2022-09-20T05:00:12;9.30;99.90
1468;DHT22;727;48.892;9.544;2022-09-20T05:03:19;9.20;99.90
1468;DHT22;727;48.892;9.544;2022-09-20T05:06:12;9.10;99.90
1468;DHT22;727;48.892;9.544;2022-09-20T05:08:57;9.00;99.90
1468;DHT22;727;48.892;9.544;2022-09-20T05:17:23;8.80;99.90
1468;DHT22;727;48.892;9.544;2022-09-20T05:20:12;8.80;99.90
1468;DHT22;727;48.892;9.544;2022-09-20T05:23:19;8.70;99.90
1468;DHT22;727;48.892;9.544;2022-09-20T05:26:02;8.70;99.90
1468;DHT22;727;48.892;9.544;2022-09-20T05:28:37;8.70;99.90
1468;DHT22;727;48.892;9.544;2022-09-20T05:31:11;8.70;99.90
1468;DHT22;727;48.892;9.544;2022-09-20T05:33:47;8.60;99.90
1468;DHT22;727;48.892;9.544;2022-09-20T05:36:22;8.70;99.90
1468;DHT22;727;48.892;9.544;2022-09-20T05:38:57;8.80;99.90
1468;DHT22;727;48.892;9.544;2022-09-20T05:41:31;8.90;99.90
1468;DHT22;727;48.892;9.544;2022-09-20T05:44:06;9.00;99.90
1468;DHT22;727;48.892;9.544;2022-09-20T05:46:42;9.00;99.90
1468;DHT22;727;48.892;9.544;2022-09-20T05:49:15;9.00;99.90
1468;DHT22;727;48.892;9.544;2022-09-20T05:51:58;9.10;99.90
1468;DHT22;727;48.892;9.544;2022-09-20T05:54:50;9.10;99.90
1468;DHT22;727;48.892;9.544;2022-09-20T05:57:30;9.10;99.90
1468;DHT22;727;48.892;9.544;2022-09-20T06:00:03;9.30;99.90
1468;DHT22;727;48.892;9.544;2022-09-20T06:02:40;9.40;99.90
1468;DHT22;727;48.892;9.544;2022-09-20T06:05:13;10.40;99.90
1468;DHT22;727;48.892;9.544;2022-09-20T06:07:51;11.80;99.90
1468;DHT22;727;48.892;9.544;2022-09-20T06:10:38;12.70;99.90
1468;DHT22;727;48.892;9.544;2022-09-20T06:13:28;12.40;99.90
1468;DHT22;727;48.892;9.544;2022-09-20T06:16:00;12.00;99.90
1468;DHT22;727;48.892;9.544;2022-09-20T06:18:33;11.50;99.90
1468;DHT22;727;48.892;9.544;2022-09-20T06:21:12;11.10;99.90
1468;DHT22;727;48.892;9.544;2022-09-20T06:23:41;10.90;99.90
1468;DHT22;727;48.892;9.544;2022-09-20T06:26:13;10.70;99.90
1468;DHT22;727;48.892;9.544;2022-09-20T06:28:44;10.50;99.90
1468;DHT22;727;48.892;9.544;2022-09-20T06:31:12;10.40;99.90
1468;DHT22;727;48.892;9.544;2022-09-20T06:33:44;10.30;99.90
1468;DHT22;727;48.892;9.544;2022-09-20T06:36:16;10.50;99.90
1468;DHT22;727;48.892;9.544;2022-09-20T06:39:06;11.10;99.90
1468;DHT22;727;48.892;9.544;2022-09-20T06:41:57;12.20;99.90
1468;DHT22;727;48.892;9.544;2022-09-20T06:44:24;12.90;99.90
1468;DHT22;727;48.892;9.544;2022-09-20T06:46:51;13.90;99.90
1468;DHT22;727;48.892;9.544;2022-09-20T06:49:18;15.00;99.90
1468;DHT22;727;48.892;9.544;2022-09-20T06:51:46;15.60;99.90
1468;DHT22;727;48.892;9.544;2022-09-20T06:54:17;15.70;99.90
1468;DHT22;727;48.892;9.544;2022-09-20T06:56:45;15.40;99.90
1468;DHT22;727;48.892;9.544;2022-09-20T06:59:13;14.90;99.90
1468;DHT22;727;48.892;9.544;2022-09-20T07:01:41;14.30;99.90
1468;DHT22;727;48.892;9.544;2022-09-20T07:04:08;13.70;99.90
1468;DHT22;727;48.892;9.544;2022-09-20T07:06:35;13.40;99.90
1468;DHT22;727;48.892;9.544;2022-09-20T07:09:02;13.00;99.90
1468;DHT22;727;48.892;9.544;2022-09-20T07:11:29;12.80;99.90
1468;DHT22;727;48.892;9.544;2022-09-20T07:13:59;12.90;99.90
1468;DHT22;727;48.892;9.544;2022-09-20T07:16:28;12.90;99.90
1468;DHT22;727;48.892;9.544;2022-09-20T07:18:54;12.70;99.90
1468;DHT22;727;48.892;9.544;2022-09-20T07:21:22;12.50;99.90
1468;DHT22;727;48.892;9.544;2022-09-20T07:23:48;12.30;99.90
1468;DHT22;727;48.892;9.544;2022-09-20T07:26:17;12.30;99.90
1468;DHT22;727;48.892;9.544;2022-09-20T07:28:44;12.20;99.90
1468;DHT22;727;48.892;9.544;2022-09-20T07:31:11;12.30;99.90
1468;DHT22;727;48.892;9.544;2022-09-20T07:33:39;12.50;99.90
1468;DHT22;727;48.892;9.544;2022-09-20T07:36:06;12.50;99.90
1468;DHT22;727;48.892;9.544;2022-09-20T07:38:33;12.50;99.90
1468;DHT22;727;48.892;9.544;2022-09-20T07:41:01;12.50;99.90
1468;DHT22;727;48.892;9.544;2022-09-20T07:43:29;12.30;99.90
1468;DHT22;727;48.892;9.544;2022-09-20T07:45:56;12.10;99.90
1468;DHT22;727;48.892;9.544;2022-09-20T07:48:26;12.10;99.90
1468;DHT22;727;48.892;9.544;2022-09-20T07:50:55;12.30;99.90
1468;DHT22;727;48.892;9.544;2022-09-20T07:53:22;12.40;99.90
1468;DHT22;727;48.892;9.544;2022-09-20T07:55:57;12.50;99.90
1468;DHT22;727;48.892;9.544;2022-09-20T07:58:24;12.90;99.90
1468;DHT22;727;48.892;9.544;2022-09-20T08:00:52;13.30;99.90
1468;DHT22;727;48.892;9.544;2022-09-20T08:03:19;13.70;99.90
1468;DHT22;727;48.892;9.544;2022-09-20T08:05:46;14.00;99.90
1468;DHT22;727;48.892;9.544;2022-09-20T08:08:14;14.10;99.90
1468;DHT22;727;48.892;9.544;2022-09-20T08:10:42;14.20;99.90
1468;DHT22;727;48.892;9.544;2022-09-20T08:13:09;14.20;99.90
1468;DHT22;727;48.892;9.544;2022-09-20T08:15:36;14.10;99.90
1468;DHT22;727;48.892;9.544;2022-09-20T08:18:03;13.80;99.90
1468;DHT22;727;48.892;9.544;2022-09-20T08:20:29;14.10;99.90
1468;DHT22;727;48.892;9.544;2022-09-20T08:22:57;14.50;99.90
1468;DHT22;727;48.892;9.544;2022-09-20T08:25:25;14.90;99.90
1468;DHT22;727;48.892;9.544;2022-09-20T08:27:52;15.40;99.90
1468;DHT22;727;48.892;9.544;2022-09-20T08:30:19;15.90;98.00
1468;DHT22;727;48.892;9.544;2022-09-20T08:32:46;15.60;98.70
1468;DHT22;727;48.892;9.544;2022-09-20T08:35:13;15.70;99.90
1468;DHT22;727;48.892;9.544;2022-09-20T08:37:40;15.80;97.50
1468;DHT22;727;48.892;9.544;2022-09-20T08:40:09;16.10;97.10
1468;DHT22;727;48.892;9.544;2022-09-20T08:42:39;16.00;95.40
1468;DHT22;727;48.892;9.544;2022-09-20T08:45:13;15.50;94.80
1468;DHT22;727;48.892;9.544;2022-09-20T08:47:47;15.10;96.70
1468;DHT22;727;48.892;9.544;2022-09-20T08:50:14;15.30;97.30
1468;DHT22;727;48.892;9.544;2022-09-20T08:52:44;15.30;98.30
1468;DHT22;727;48.892;9.544;2022-09-20T08:55:15;15.30;97.40
1468;DHT22;727;48.892;9.544;2022-09-20T08:57:46;15.10;97.50
1468;DHT22;727;48.892;9.544;2022-09-20T09:00:16;15.30;98.00
1468;DHT22;727;48.892;9.544;2022-09-20T09:02:44;15.70;96.30
1468;DHT22;727;48.892;9.544;2022-09-20T09:05:29;16.10;95.00
1468;DHT22;727;48.892;9.544;2022-09-20T09:07:57;16.70;93.10
1468;DHT22;727;48.892;9.544;2022-09-20T09:10:26;16.90;93.50
1468;DHT22;727;48.892;9.544;2022-09-20T09:12:55;17.50;92.40
1468;DHT22;727;48.892;9.544;2022-09-20T09:15:26;17.90;91.40
1468;DHT22;727;48.892;9.544;2022-09-20T09:17:54;17.70;91.00
1468;DHT22;727;48.892;9.544;2022-09-20T09:20:22;18.00;90.20
1468;DHT22;727;48.892;9.544;2022-09-20T09:22:58;18.00;90.00
1468;DHT22;727;48.892;9.544;2022-09-20T09:25:25;17.70;88.90
1468;DHT22;727;48.892;9.544;2022-09-20T09:28:00;17.10;90.40
1468;DHT22;727;48.892;9.544;2022-09-20T09:30:29;16.70;91.00
1468;DHT22;727;48.892;9.544;2022-09-20T09:35:57;15.90;92.70
1468;DHT22;727;48.892;9.544;2022-09-20T09:38:26;15.80;92.60
1468;DHT22;727;48.892;9.544;2022-09-20T09:40:55;16.30;92.60
1468;DHT22;727;48.892;9.544;2022-09-20T09:43:25;16.90;91.70
1468;DHT22;727;48.892;9.544;2022-09-20T09:45:54;17.30;90.80
1468;DHT22;727;48.892;9.544;2022-09-20T09:48:24;17.30;90.20
1468;DHT22;727;48.892;9.544;2022-09-20T09:51:08;16.80;87.60
1468;DHT22;727;48.892;9.544;2022-09-20T09:53:35;16.60;90.90
1468;DHT22;727;48.892;9.544;2022-09-20T09:59:31;16.00;91.20
1468;DHT22;727;48.892;9.544;2022-09-20T10:02:13;15.70;92.20
1468;DHT22;727;48.892;9.544;2022-09-20T10:04:48;15.50;92.80
1468;DHT22;727;48.892;9.544;2022-09-20T10:07:22;15.30;93.00
1468;DHT22;727;48.892;9.544;2022-09-20T10:10:01;15.60;93.10
1468;DHT22;727;48.892;9.544;2022-09-20T10:12:44;16.60;90.70
1468;DHT22;727;48.892;9.544;2022-09-20T10:15:27;17.50;86.20
1468;DHT22;727;48.892;9.544;2022-09-20T10:18:09;18.00;82.80
1468;DHT22;727;48.892;9.544;2022-09-20T10:20:49;18.80;80.10
1468;DHT22;727;48.892;9.544;2022-09-20T10:23:27;19.10;79.40
1468;DHT22;727;48.892;9.544;2022-09-20T10:26:05;18.80;79.50
1468;DHT22;727;48.892;9.544;2022-09-20T10:28:43;18.30;79.90
1468;DHT22;727;48.892;9.544;2022-09-20T10:31:28;17.80;79.90
1468;DHT22;727;48.892;9.544;2022-09-20T10:34:33;17.20;80.40
1468;DHT22;727;48.892;9.544;2022-09-20T10:37:10;16.80;81.60
1468;DHT22;727;48.892;9.544;2022-09-20T10:39:42;16.40;82.30
1468;DHT22;727;48.892;9.544;2022-09-20T10:42:21;16.10;85.30
1468;DHT22;727;48.892;9.544;2022-09-20T10:45:16;16.40;83.10
1468;DHT22;727;48.892;9.544;2022-09-20T10:47:48;16.60;84.70
1468;DHT22;727;48.892;9.544;2022-09-20T10:50:23;18.10;84.70
1468;DHT22;727;48.892;9.544;2022-09-20T10:53:16;20.40;74.60
1468;DHT22;727;48.892;9.544;2022-09-20T10:55:53;22.00;68.00
1468;DHT22;727;48.892;9.544;2022-09-20T10:58:57;23.60;62.80
1468;DHT22;727;48.892;9.544;2022-09-20T11:01:33;24.10;57.40
1468;DHT22;727;48.892;9.544;2022-09-20T11:04:19;23.40;56.50
1468;DHT22;727;48.892;9.544;2022-09-20T11:06:53;22.40;56.50
1468;DHT22;727;48.892;9.544;2022-09-20T11:09:23;21.00;58.90
1468;DHT22;727;48.892;9.544;2022-09-20T11:11:57;20.20;65.00
1468;DHT22;727;48.892;9.544;2022-09-20T11:14:30;19.40;66.70
1468;DHT22;727;48.892;9.544;2022-09-20T11:17:04;20.40;67.20
1468;DHT22;727;48.892;9.544;2022-09-20T11:19:42;20.40;63.00
1468;DHT22;727;48.892;9.544;2022-09-20T11:22:15;19.80;64.30
1468;DHT22;727;48.892;9.544;2022-09-20T11:24:46;19.10;65.30
1468;DHT22;727;48.892;9.544;2022-09-20T11:27:19;18.70;67.20
1468;DHT22;727;48.892;9.544;2022-09-20T11:29:50;18.30;70.20
1468;DHT22;727;48.892;9.544;2022-09-20T11:32:23;18.30;70.80
1468;DHT22;727;48.892;9.544;2022-09-20T11:34:55;18.10;68.90
1468;DHT22;727;48.892;9.544;2022-09-20T11:37:26;17.90;69.80
1468;DHT22;727;48.892;9.544;2022-09-20T11:40:00;17.70;71.50
1468;DHT22;727;48.892;9.544;2022-09-20T11:42:32;17.60;73.00
1468;DHT22;727;48.892;9.544;2022-09-20T11:45:00;17.40;74.90
1468;DHT22;727;48.892;9.544;2022-09-20T11:47:29;17.40;74.30
1468;DHT22;727;48.892;9.544;2022-09-20T11:50:11;18.70;71.10
1468;DHT22;727;48.892;9.544;2022-09-20T11:52:54;20.90;65.50
1468;DHT22;727;48.892;9.544;2022-09-20T11:55:31;22.70;60.40
1468;DHT22;727;48.892;9.544;2022-09-20T11:58:03;23.40;55.10
1468;DHT22;727;48.892;9.544;2022-09-20T12:00:32;24.30;53.60
1468;DHT22;727;48.892;9.544;2022-09-20T12:03:01;24.80;51.80
1468;DHT22;727;48.892;9.544;2022-09-20T12:05:33;25.10;50.10
1468;DHT22;727;48.892;9.544;2022-09-20T12:08:04;25.40;49.60
1468;DHT22;727;48.892;9.544;2022-09-20T12:10:33;25.60;50.90
1468;DHT22;727;48.892;9.544;2022-09-20T12:13:03;26.50;50.00
1468;DHT22;727;48.892;9.544;2022-09-20T12:15:33;26.80;48.30
1468;DHT22;727;48.892;9.544;2022-09-20T12:21:17;25.30;48.50
1468;DHT22;727;48.892;9.544;2022-09-20T12:26:53;24.50;51.90
1468;DHT22;727;48.892;9.544;2022-09-20T12:32:41;23.40;52.80
1468;DHT22;727;48.892;9.544;2022-09-20T12:38:47;21.20;56.80
1468;DHT22;727;48.892;9.544;2022-09-20T12:41:18;20.30;59.80
1468;DHT22;727;48.892;9.544;2022-09-20T12:43:54;19.70;59.90
1468;DHT22;727;48.892;9.544;2022-09-20T12:46:25;19.20;59.90
1468;DHT22;727;48.892;9.544;2022-09-20T12:49:17;18.50;59.90
1468;DHT22;727;48.892;9.544;2022-09-20T12:52:20;18.10;60.50
1468;DHT22;727;48.892;9.544;2022-09-20T12:55:08;17.90;62.00
1468;DHT22;727;48.892;9.544;2022-09-20T12:57:36;18.40;64.10
1468;DHT22;727;48.892;9.544;2022-09-20T13:00:06;20.00;59.90
1468;DHT22;727;48.892;9.544;2022-09-20T13:02:56;21.00;61.20
1468;DHT22;727;48.892;9.544;2022-09-20T13:05:33;21.00;59.50
1468;DHT22;727;48.892;9.544;2022-09-20T13:08:11;19.90;60.10
1468;DHT22;727;48.892;9.544;2022-09-20T13:10:44;18.50;63.70
1468;DHT22;727;48.892;9.544;2022-09-20T13:13:28;17.90;67.60
1468;DHT22;727;48.892;9.544;2022-09-20T13:15:57;18.50;67.20
1468;DHT22;727;48.892;9.544;2022-09-20T13:18:26;18.60;68.00
1468;DHT22;727;48.892;9.544;2022-09-20T13:20:55;17.90;67.20
1468;DHT22;727;48.892;9.544;2022-09-20T13:23:24;17.40;70.20
1468;DHT22;727;48.892;9.544;2022-09-20T13:25:55;17.30;72.00
1468;DHT22;727;48.892;9.544;2022-09-20T13:28:33;17.20;72.70
1468;DHT22;727;48.892;9.544;2022-09-20T13:31:23;17.00;72.80
1468;DHT22;727;48.892;9.544;2022-09-20T13:33:51;16.90;72.10
1468;DHT22;727;48.892;9.544;2022-09-20T13:36:25;16.80;73.20
1468;DHT22;727;48.892;9.544;2022-09-20T13:38:56;16.70;72.30
1468;DHT22;727;48.892;9.544;2022-09-20T13:41:27;16.60;74.00
1468;DHT22;727;48.892;9.544;2022-09-20T13:43:57;16.70;73.60
1468;DHT22;727;48.892;9.544;2022-09-20T13:46:28;17.00;75.00
1468;DHT22;727;48.892;9.544;2022-09-20T13:49:08;17.50;70.60
1468;DHT22;727;48.892;9.544;2022-09-20T13:51:35;17.80;67.70
1468;DHT22;727;48.892;9.544;2022-09-20T13:54:17;17.70;68.10
1468;DHT22;727;48.892;9.544;2022-09-20T13:56:46;17.80;65.30
1468;DHT22;727;48.892;9.544;2022-09-20T13:59:13;17.80;65.60
1468;DHT22;727;48.892;9.544;2022-09-20T14:01:47;17.90;68.20
1468;DHT22;727;48.892;9.544;2022-09-20T14:04:15;18.00;64.80
1468;DHT22;727;48.892;9.544;2022-09-20T14:06:44;18.20;64.20
1468;DHT22;727;48.892;9.544;2022-09-20T14:09:19;18.10;63.10
1468;DHT22;727;48.892;9.544;2022-09-20T14:11:48;18.10;63.60
1468;DHT22;727;48.892;9.544;2022-09-20T14:14:15;18.00;63.30
1468;DHT22;727;48.892;9.544;2022-09-20T14:16:44;18.00;65.00
1468;DHT22;727;48.892;9.544;2022-09-20T14:19:15;18.00;63.60
1468;DHT22;727;48.892;9.544;2022-09-20T14:21:43;17.90;62.20
1468;DHT22;727;48.892;9.544;2022-09-20T14:24:25;17.90;61.30
1468;DHT22;727;48.892;9.544;2022-09-20T14:27:13;17.50;62.50
1468;DHT22;727;48.892;9.544;2022-09-20T14:29:42;17.30;67.00
1468;DHT22;727;48.892;9.544;2022-09-20T14:32:27;17.30;67.30
1468;DHT22;727;48.892;9.544;2022-09-20T14:35:00;17.30;67.70
1468;DHT22;727;48.892;9.544;2022-09-20T14:37:30;17.00;67.40
1468;DHT22;727;48.892;9.544;2022-09-20T14:39:59;16.80;69.30
1468;DHT22;727;48.892;9.544;2022-09-20T14:42:32;16.70;68.00
1468;DHT22;727;48.892;9.544;2022-09-20T14:44:59;16.80;69.40
1468;DHT22;727;48.892;9.544;2022-09-20T14:47:34;16.90;68.60
1468;DHT22;727;48.892;9.544;2022-09-20T14:50:02;17.00;68.10
1468;DHT22;727;48.892;9.544;2022-09-20T14:52:38;16.90;68.70
1468;DHT22;727;48.892;9.544;2022-09-20T14:55:19;16.90;69.60
1468;DHT22;727;48.892;9.544;2022-09-20T14:57:55;16.90;70.40
1468;DHT22;727;48.892;9.544;2022-09-20T15:00:23;16.90;69.20
1468;DHT22;727;48.892;9.544;2022-09-20T15:02:52;16.90;69.50
1468;DHT22;727;48.892;9.544;2022-09-20T15:05:22;16.90;69.00
1468;DHT22;727;48.892;9.544;2022-09-20T15:07:51;17.00;70.20
1468;DHT22;727;48.892;9.544;2022-09-20T15:10:17;17.00;69.50
1468;DHT22;727;48.892;9.544;2022-09-20T15:12:45;16.80;71.70
1468;DHT22;727;48.892;9.544;2022-09-20T15:15:15;16.70;72.10
1468;DHT22;727;48.892;9.544;2022-09-20T15:17:44;16.40;72.50
1468;DHT22;727;48.892;9.544;2022-09-20T15:20:16;16.10;74.40
1468;DHT22;727;48.892;9.544;2022-09-20T15:22:45;16.00;76.00
1468;DHT22;727;48.892;9.544;2022-09-20T15:25:13;15.90;76.40
1468;DHT22;727;48.892;9.544;2022-09-20T15:27:41;15.70;76.80
1468;DHT22;727;48.892;9.544;2022-09-20T15:30:10;15.60;77.50
1468;DHT22;727;48.892;9.544;2022-09-20T15:32:38;15.70;78.00
1468;DHT22;727;48.892;9.544;2022-09-20T15:35:06;15.70;78.40
1468;DHT22;727;48.892;9.544;2022-09-20T15:37:33;15.90;78.00
1468;DHT22;727;48.892;9.544;2022-09-20T15:40:00;16.10;76.90
1468;DHT22;727;48.892;9.544;2022-09-20T15:42:28;16.20;75.60
1468;DHT22;727;48.892;9.544;2022-09-20T15:44:55;16.20;73.10
1468;DHT22;727;48.892;9.544;2022-09-20T15:47:22;16.20;73.20
1468;DHT22;727;48.892;9.544;2022-09-20T15:49:50;16.20;73.50
1468;DHT22;727;48.892;9.544;2022-09-20T15:52:17;16.20;75.90
1468;DHT22;727;48.892;9.544;2022-09-20T15:54:50;16.10;74.60
1468;DHT22;727;48.892;9.544;2022-09-20T15:57:17;16.00;73.60
1468;DHT22;727;48.892;9.544;2022-09-20T15:59:44;15.90;76.40
1468;DHT22;727;48.892;9.544;2022-09-20T16:02:11;15.80;73.50
1468;DHT22;727;48.892;9.544;2022-09-20T16:04:38;15.60;73.60
1468;DHT22;727;48.892;9.544;2022-09-20T16:07:06;15.50;75.10
1468;DHT22;727;48.892;9.544;2022-09-20T16:09:33;15.30;74.80
1468;DHT22;727;48.892;9.544;2022-09-20T16:12:02;15.30;73.00
1468;DHT22;727;48.892;9.544;2022-09-20T16:14:29;15.10;74.70
1468;DHT22;727;48.892;9.544;2022-09-20T16:16:56;14.90;75.80
1468;DHT22;727;48.892;9.544;2022-09-20T16:19:22;14.80;77.00
1468;DHT22;727;48.892;9.544;2022-09-20T16:21:52;14.80;78.90
1468;DHT22;727;48.892;9.544;2022-09-20T16:24:23;14.70;79.50
1468;DHT22;727;48.892;9.544;2022-09-20T16:26:50;14.70;79.90
1468;DHT22;727;48.892;9.544;2022-09-20T16:29:17;14.60;79.10
1468;DHT22;727;48.892;9.544;2022-09-20T16:31:47;14.50;79.40
1468;DHT22;727;48.892;9.544;2022-09-20T16:34:17;14.40;83.70
1468;DHT22;727;48.892;9.544;2022-09-20T16:36:44;14.30;86.20
1468;DHT22;727;48.892;9.544;2022-09-20T16:39:12;14.00;89.90
1468;DHT22;727;48.892;9.544;2022-09-20T16:41:41;13.80;91.10
1468;DHT22;727;48.892;9.544;2022-09-20T16:44:08;13.50;92.40
1468;DHT22;727;48.892;9.544;2022-09-20T16:46:35;13.30;93.80
1468;DHT22;727;48.892;9.544;2022-09-20T16:49:03;13.10;94.90
1468;DHT22;727;48.892;9.544;2022-09-20T16:51:33;12.90;95.80
1468;DHT22;727;48.892;9.544;2022-09-20T16:54:01;12.80;96.90
1468;DHT22;727;48.892;9.544;2022-09-20T16:56:30;12.60;97.60
1468;DHT22;727;48.892;9.544;2022-09-20T16:59:00;12.50;98.30
1468;DHT22;727;48.892;9.544;2022-09-20T17:01:27;12.40;98.70
1468;DHT22;727;48.892;9.544;2022-09-20T17:03:54;12.30;99.30
1468;DHT22;727;48.892;9.544;2022-09-20T17:06:22;12.10;99.90
1468;DHT22;727;48.892;9.544;2022-09-20T17:08:51;12.00;99.90
1468;DHT22;727;48.892;9.544;2022-09-20T17:11:19;11.90;99.90
1468;DHT22;727;48.892;9.544;2022-09-20T17:13:48;11.70;99.90
1468;DHT22;727;48.892;9.544;2022-09-20T17:16:18;11.60;99.90
1468;DHT22;727;48.892;9.544;2022-09-20T17:18:49;11.50;99.90
1468;DHT22;727;48.892;9.544;2022-09-20T17:21:17;11.30;99.90
1468;DHT22;727;48.892;9.544;2022-09-20T17:23:45;11.20;99.90
1468;DHT22;727;48.892;9.544;2022-09-20T17:26:14;11.10;99.90
1468;DHT22;727;48.892;9.544;2022-09-20T17:28:43;10.90;99.90
1468;DHT22;727;48.892;9.544;2022-09-20T17:31:12;10.80;99.90
1468;DHT22;727;48.892;9.544;2022-09-20T17:33:40;10.60;99.90
1468;DHT22;727;48.892;9.544;2022-09-20T17:36:11;10.50;99.90
1468;DHT22;727;48.892;9.544;2022-09-20T17:38:38;10.50;99.90
1468;DHT22;727;48.892;9.544;2022-09-20T17:41:06;10.40;99.90
1468;DHT22;727;48.892;9.544;2022-09-20T17:43:34;10.30;99.90
1468;DHT22;727;48.892;9.544;2022-09-20T17:46:06;10.30;99.90
1468;DHT22;727;48.892;9.544;2022-09-20T17:48:33;10.20;99.90
1468;DHT22;727;48.892;9.544;2022-09-20T17:51:03;10.10;99.90